createdAt,value
2019-02-19T00:01:38.015Z,6.50
2019-02-19T00:04:09.436Z,6.00
2019-02-19T00:06:41.947Z,5.97
2019-02-19T00:09:13.392Z,7.33
2019-02-19T00:11:44.843Z,6.47
2019-02-19T00:14:16.475Z,6.57
2019-02-19T00:16:47.878Z,6.60
2019-02-19T00:19:19.308Z,6.60
2019-02-19T00:21:50.788Z,7.33
2019-02-19T00:24:22.134Z,7.60
2019-02-19T00:26:53.531Z,7.00
2019-02-19T00:29:24.881Z,6.53
2019-02-19T00:31:56.321Z,7.30
2019-02-19T00:34:27.733Z,7.47
2019-02-19T00:36:59.193Z,6.73
2019-02-19T00:39:30.707Z,6.73
2019-02-19T00:42:02.129Z,6.80
2019-02-19T00:44:33.540Z,6.90
2019-02-19T00:47:05.113Z,6.87
2019-02-19T00:49:40.399Z,6.77
2019-02-19T00:52:11.545Z,6.50
2019-02-19T00:54:42.969Z,6.73
2019-02-19T00:57:14.419Z,6.50
2019-02-19T00:59:45.823Z,6.37
2019-02-19T01:02:17.283Z,6.23
2019-02-19T01:04:48.709Z,5.30
2019-02-19T01:07:20.221Z,5.57
2019-02-19T01:09:51.641Z,5.10
2019-02-19T01:12:23.551Z,5.53
2019-02-19T01:14:54.980Z,4.80
2019-02-19T01:17:26.492Z,5.03
2019-02-19T01:19:57.913Z,5.67
2019-02-19T01:22:29.402Z,5.70
2019-02-19T01:25:00.842Z,5.87
2019-02-19T01:27:34.032Z,5.67
2019-02-19T01:30:06.901Z,5.47
2019-02-19T01:32:38.364Z,5.10
2019-02-19T01:35:10.420Z,4.87
2019-02-19T01:37:41.861Z,4.70
2019-02-19T01:40:13.291Z,4.90
2019-02-19T01:42:44.731Z,5.10
2019-02-19T01:45:18.698Z,4.90
2019-02-19T01:47:50.130Z,5.30
2019-02-19T01:50:21.579Z,5.50
2019-02-19T01:52:53.008Z,5.20
2019-02-19T01:55:27.207Z,5.93
2019-02-19T01:57:58.938Z,5.43
2019-02-19T02:00:30.357Z,5.07
2019-02-19T02:03:01.715Z,5.63
2019-02-19T02:05:33.077Z,5.73
2019-02-19T02:08:04.532Z,5.30
2019-02-19T02:10:35.880Z,5.80
2019-02-19T02:13:07.250Z,6.07
2019-02-19T02:15:42.666Z,6.90
2019-02-19T02:18:11.808Z,6.13
2019-02-19T02:20:43.227Z,6.40
2019-02-19T02:23:14.683Z,6.60
2019-02-19T02:25:46.092Z,6.23
2019-02-19T02:28:17.566Z,6.37
2019-02-19T02:30:48.987Z,6.23
2019-02-19T02:33:20.392Z,6.67
2019-02-19T02:35:51.815Z,7.43
2019-02-19T02:38:23.303Z,7.07
2019-02-19T02:40:55.174Z,7.70
2019-02-19T02:43:26.786Z,7.10
2019-02-19T02:45:58.214Z,7.77
2019-02-19T02:48:29.664Z,7.17
2019-02-19T02:51:01.092Z,7.60
2019-02-19T02:53:32.559Z,6.40
2019-02-19T02:56:03.928Z,7.53
2019-02-19T02:58:35.946Z,6.97
2019-02-19T03:01:10.450Z,7.23
2019-02-19T03:03:53.320Z,7.50
2019-02-19T03:06:39.884Z,6.80
2019-02-19T03:09:14.556Z,6.70
2019-02-19T03:11:47.191Z,7.60
2019-02-19T03:14:21.360Z,7.00
2019-02-19T03:16:57.842Z,7.77
2019-02-19T03:19:29.326Z,7.70
2019-02-19T03:22:00.754Z,7.33
2019-02-19T03:24:32.246Z,7.70
2019-02-19T03:27:03.669Z,7.03
2019-02-19T03:29:35.135Z,7.57
2019-02-19T03:32:06.558Z,6.50
2019-02-19T03:34:38.042Z,6.43
2019-02-19T03:37:09.361Z,6.00
2019-02-19T03:39:40.835Z,6.63
2019-02-19T03:42:12.485Z,7.33
2019-02-19T03:44:43.917Z,7.10
2019-02-19T03:47:15.490Z,7.47
2019-02-19T03:49:48.220Z,5.90
2019-02-19T03:52:21.290Z,6.27
2019-02-19T03:54:52.824Z,6.10
2019-02-19T03:57:24.179Z,6.10
2019-02-19T03:59:55.633Z,6.00
2019-02-19T04:02:27.294Z,5.83
2019-02-19T04:04:58.720Z,6.43
2019-02-19T04:07:30.155Z,5.93
2019-02-19T04:10:01.626Z,6.00
2019-02-19T04:12:34.114Z,5.83
2019-02-19T04:15:05.691Z,5.50
2019-02-19T04:17:37.296Z,5.90
2019-02-19T04:20:09.479Z,6.00
2019-02-19T04:22:41.118Z,5.83
2019-02-19T04:25:12.602Z,5.27
2019-02-19T04:27:43.971Z,5.50
2019-02-19T04:30:15.395Z,5.70
2019-02-19T04:32:46.824Z,5.43
2019-02-19T04:35:18.904Z,5.83
2019-02-19T04:37:50.295Z,5.17
2019-02-19T04:40:21.718Z,5.60
2019-02-19T04:42:53.148Z,5.20
2019-02-19T04:45:24.577Z,5.70
2019-02-19T04:47:58.029Z,6.43
2019-02-19T04:50:29.189Z,5.57
2019-02-19T04:53:00.711Z,5.50
2019-02-19T04:55:32.170Z,5.47
2019-02-19T04:58:03.640Z,6.40
2019-02-19T05:00:35.195Z,6.67
2019-02-19T05:03:06.653Z,7.00
2019-02-19T05:05:39.691Z,6.50
2019-02-19T05:08:11.131Z,6.67
2019-02-19T05:10:42.594Z,6.17
2019-02-19T05:13:15.665Z,6.80
2019-02-19T05:15:47.031Z,5.90
2019-02-19T05:18:18.441Z,7.13
2019-02-19T05:20:51.533Z,6.83
2019-02-19T05:23:22.954Z,5.53
2019-02-19T05:25:54.411Z,6.60
2019-02-19T05:28:25.747Z,6.47
2019-02-19T05:30:57.315Z,5.93
2019-02-19T05:33:28.778Z,6.57
2019-02-19T05:36:00.309Z,5.90
2019-02-19T05:38:31.789Z,6.60
2019-02-19T05:41:03.480Z,5.87
2019-02-19T05:43:34.899Z,6.60
2019-02-19T05:46:06.352Z,6.57
2019-02-19T05:48:37.789Z,6.57
2019-02-19T05:51:09.151Z,7.73
2019-02-19T05:53:40.601Z,6.90
2019-02-19T05:56:12.080Z,7.27
2019-02-19T05:58:43.508Z,6.67
2019-02-19T06:01:14.989Z,6.80
2019-02-19T06:03:46.413Z,6.80
2019-02-19T06:06:17.868Z,7.27
2019-02-19T06:08:49.342Z,7.77
2019-02-19T06:11:23.011Z,6.53
2019-02-19T06:13:54.498Z,7.07
2019-02-19T06:16:26.005Z,7.00
2019-02-19T06:18:58.659Z,6.83
2019-02-19T06:21:30.101Z,8.30
2019-02-19T06:24:01.582Z,7.77
2019-02-19T06:26:33.021Z,7.37
2019-02-19T06:29:04.471Z,6.77
2019-02-19T06:31:35.853Z,7.20
2019-02-19T06:34:07.331Z,8.30
2019-02-19T06:36:38.818Z,7.53
2019-02-19T06:39:10.281Z,7.30
2019-02-19T06:41:46.315Z,7.50
2019-02-19T06:44:21.321Z,6.73
2019-02-19T06:46:54.110Z,7.33
2019-02-19T06:49:25.567Z,7.10
2019-02-19T06:51:57.438Z,7.03
2019-02-19T06:54:29.849Z,7.90
2019-02-19T06:57:03.113Z,8.10
2019-02-19T06:59:34.533Z,7.50
2019-02-19T07:02:42.963Z,7.23
2019-02-19T07:05:19.520Z,7.77
2019-02-19T07:07:50.963Z,8.00
2019-02-19T07:10:23.037Z,8.80
2019-02-19T07:12:57.396Z,7.90
2019-02-19T07:15:30.449Z,8.07
2019-02-19T07:18:01.877Z,8.00
2019-02-19T07:20:35.605Z,8.07
2019-02-19T07:23:08.297Z,7.93
2019-02-19T07:25:39.734Z,7.83
2019-02-19T07:28:11.233Z,7.43
2019-02-19T07:30:42.687Z,8.17
2019-02-19T07:33:14.104Z,7.00
2019-02-19T07:35:45.549Z,7.77
2019-02-19T07:38:17.047Z,7.77
2019-02-19T07:40:48.418Z,7.77
2019-02-19T07:43:19.889Z,7.47
2019-02-19T07:45:52.334Z,8.77
2019-02-19T07:48:26.446Z,7.60
2019-02-19T07:50:57.940Z,8.07
2019-02-19T07:53:29.417Z,8.87
2019-02-19T07:56:00.748Z,8.30
2019-02-19T07:58:32.328Z,7.70
2019-02-19T08:01:03.817Z,7.60
2019-02-19T08:03:35.368Z,8.10
2019-02-19T08:06:06.795Z,7.33
2019-02-19T08:08:38.281Z,7.20
2019-02-19T08:11:09.852Z,8.40
2019-02-19T08:13:41.234Z,8.30
2019-02-19T08:16:12.667Z,8.27
2019-02-19T08:18:45.243Z,8.10
2019-02-19T08:21:16.773Z,7.53
2019-02-19T08:23:48.249Z,8.00
2019-02-19T08:26:19.723Z,9.57
2019-02-19T08:28:51.332Z,8.10
2019-02-19T08:31:24.579Z,8.00
2019-02-19T08:33:57.654Z,8.60
2019-02-19T08:36:30.216Z,8.63
2019-02-19T08:39:01.591Z,8.73
2019-02-19T08:41:34.638Z,7.73
2019-02-19T08:44:06.132Z,7.07
2019-02-19T08:46:37.589Z,10.40
2019-02-19T08:49:09.046Z,8.97
2019-02-19T08:51:40.502Z,8.00
2019-02-19T08:54:13.580Z,6.83
2019-02-19T08:56:47.284Z,6.20
2019-02-19T08:59:19.256Z,6.47
2019-02-19T09:01:52.686Z,7.10
2019-02-19T09:04:24.140Z,6.57
2019-02-19T09:06:55.610Z,6.33
2019-02-19T09:09:27.307Z,6.20
2019-02-19T09:11:58.744Z,6.43
2019-02-19T09:14:30.208Z,5.90
2019-02-19T09:17:01.583Z,6.67
2019-02-19T09:19:33.123Z,7.07
2019-02-19T09:22:04.607Z,7.10
2019-02-19T09:24:36.093Z,7.40
2019-02-19T09:27:07.566Z,8.33
2019-02-19T09:29:39.008Z,7.17
2019-02-19T09:32:15.806Z,6.27
2019-02-19T09:34:48.826Z,5.63
2019-02-19T09:37:20.348Z,5.70
2019-02-19T09:39:55.864Z,5.70
2019-02-19T09:42:29.486Z,6.07
2019-02-19T09:45:07.663Z,5.60
2019-02-19T09:47:45.622Z,6.27
2019-02-19T09:50:17.069Z,5.70
2019-02-19T09:52:59.772Z,6.10
2019-02-19T09:55:40.131Z,5.90
2019-02-19T09:58:27.974Z,5.60
2019-02-19T10:01:00.713Z,6.17
2019-02-19T10:03:38.125Z,5.43
2019-02-19T10:06:13.522Z,4.70
2019-02-19T10:08:49.627Z,6.63
2019-02-19T10:11:26.267Z,5.33
2019-02-19T10:14:09.941Z,5.67
2019-02-19T10:16:42.164Z,5.73
2019-02-19T10:19:14.010Z,6.10
2019-02-19T10:21:45.823Z,6.33
2019-02-19T10:24:17.229Z,5.47
2019-02-19T10:26:49.690Z,5.27
2019-02-19T10:29:21.346Z,6.10
2019-02-19T10:31:52.930Z,6.10
2019-02-19T10:34:24.412Z,5.53
2019-02-19T10:36:55.848Z,4.87
2019-02-19T10:39:27.313Z,5.57
2019-02-19T10:41:58.813Z,4.80
2019-02-19T10:44:30.252Z,4.40
2019-02-19T10:47:05.453Z,5.50
2019-02-19T10:49:36.917Z,4.93
2019-02-19T10:52:08.475Z,5.03
2019-02-19T10:54:39.979Z,4.60
2019-02-19T10:57:11.451Z,6.17
2019-02-19T10:59:42.904Z,4.70
2019-02-19T11:02:16.399Z,4.90
2019-02-19T11:04:49.309Z,4.37
2019-02-19T11:07:20.777Z,4.63
2019-02-19T11:09:55.008Z,4.80
2019-02-19T11:12:26.477Z,5.10
2019-02-19T11:15:00.976Z,4.33
2019-02-19T11:17:32.584Z,4.83
2019-02-19T11:20:04.135Z,4.63
2019-02-19T11:22:35.685Z,4.60
2019-02-19T11:25:09.222Z,5.00
2019-02-19T11:27:40.736Z,5.00
2019-02-19T11:30:15.092Z,4.67
2019-02-19T11:32:46.676Z,4.97
2019-02-19T11:35:18.174Z,4.33
2019-02-19T11:37:49.631Z,4.50
2019-02-19T11:40:21.074Z,5.43
2019-02-19T11:42:52.528Z,5.03
2019-02-19T11:45:23.992Z,4.57
2019-02-19T11:47:55.503Z,4.17
2019-02-19T11:50:26.947Z,4.47
2019-02-19T11:52:58.527Z,5.50
2019-02-19T11:55:31.132Z,5.30
2019-02-19T11:58:02.547Z,4.70
2019-02-19T12:00:39.156Z,4.60
2019-02-19T12:03:10.665Z,4.20
2019-02-19T12:05:42.111Z,5.37
2019-02-19T12:08:15.725Z,5.03
2019-02-19T12:10:47.170Z,4.20
2019-02-19T12:13:18.655Z,4.50
2019-02-19T12:15:50.094Z,4.43
2019-02-19T12:18:21.557Z,4.83
2019-02-19T12:20:53.015Z,5.20
2019-02-19T12:23:24.453Z,4.33
2019-02-19T12:25:55.902Z,4.20
2019-02-19T12:28:27.400Z,4.03
2019-02-19T12:30:58.823Z,4.70
2019-02-19T12:33:30.389Z,4.50
2019-02-19T12:36:01.924Z,4.20
2019-02-19T12:38:33.358Z,3.60
2019-02-19T12:41:04.837Z,4.37
2019-02-19T12:43:36.306Z,3.90
2019-02-19T12:46:07.778Z,4.60
2019-02-19T12:48:44.260Z,5.30
2019-02-19T12:51:15.635Z,4.50
2019-02-19T12:53:49.926Z,3.70
2019-02-19T12:56:28.338Z,4.63
2019-02-19T12:59:11.358Z,3.77
2019-02-19T13:01:44.920Z,3.60
2019-02-19T13:04:20.978Z,3.97
2019-02-19T13:06:56.807Z,3.97
2019-02-19T13:09:33.807Z,3.57
2019-02-19T13:12:18.593Z,4.00
2019-02-19T13:14:52.314Z,3.53
2019-02-19T13:17:25.223Z,4.00
2019-02-19T13:19:58.221Z,3.77
2019-02-19T13:22:29.671Z,4.47
2019-02-19T13:25:01.111Z,3.30
2019-02-19T13:27:32.553Z,4.20
2019-02-19T13:30:04.051Z,3.87
2019-02-19T13:32:37.145Z,3.73
2019-02-19T13:35:09.575Z,4.07
2019-02-19T13:37:41.032Z,4.10
2019-02-19T13:40:13.389Z,3.60
2019-02-19T13:42:44.832Z,3.93
2019-02-19T13:45:16.302Z,3.50
2019-02-19T13:47:47.844Z,3.67
2019-02-19T13:50:21.111Z,4.60
2019-02-19T13:53:02.631Z,4.20
2019-02-19T13:55:38.222Z,4.17
2019-02-19T13:58:09.653Z,4.10
2019-02-19T14:00:42.937Z,3.73
2019-02-19T14:03:14.434Z,5.20
2019-02-19T14:05:45.909Z,4.33
2019-02-19T14:08:17.366Z,4.20
2019-02-19T14:10:48.825Z,4.53
2019-02-19T14:13:20.471Z,4.10
2019-02-19T14:15:58.912Z,3.80
2019-02-19T14:18:48.081Z,4.70
2019-02-19T14:21:38.410Z,3.63
2019-02-19T14:24:27.328Z,4.00
2019-02-19T14:27:08.110Z,3.90
2019-02-19T14:30:07.585Z,4.50
2019-02-19T14:32:56.947Z,4.67
2019-02-19T14:35:56.415Z,4.33
2019-02-19T14:38:53.738Z,4.30
2019-02-19T14:41:46.888Z,4.30
2019-02-19T14:44:36.226Z,4.43
2019-02-19T14:47:25.472Z,5.30
2019-02-19T14:50:12.856Z,4.53
2019-02-19T14:52:56.314Z,4.17
2019-02-19T14:55:45.507Z,3.83
2019-02-19T14:58:38.842Z,5.30
2019-02-19T15:01:35.550Z,4.30
2019-02-19T15:04:25.893Z,5.23
2019-02-19T15:07:09.576Z,4.97
2019-02-19T15:10:02.722Z,5.90
2019-02-19T15:12:53.535Z,4.37
2019-02-19T15:15:46.631Z,4.80
2019-02-19T15:18:46.065Z,4.10
2019-02-19T15:21:32.386Z,4.53
2019-02-19T15:24:29.125Z,4.30
2019-02-19T15:27:06.654Z,3.83
2019-02-19T15:29:54.352Z,3.80
2019-02-19T15:32:50.468Z,3.83
2019-02-19T15:35:39.585Z,4.23
2019-02-19T15:38:29.936Z,4.23
2019-02-19T15:41:23.172Z,4.40
2019-02-19T15:44:06.045Z,4.70
2019-02-19T15:46:56.313Z,4.47
2019-02-19T15:49:47.900Z,5.00
2019-02-19T15:52:41.029Z,4.57
2019-02-19T15:55:30.386Z,4.50
2019-02-19T15:58:22.101Z,4.73
2019-02-19T16:01:11.471Z,5.40
2019-02-19T16:03:52.220Z,4.60
2019-02-19T16:06:29.108Z,4.70
2019-02-19T16:09:18.131Z,4.73
2019-02-19T16:12:14.508Z,4.83
2019-02-19T16:15:03.527Z,5.90
2019-02-19T16:17:53.934Z,5.80
2019-02-19T16:20:47.278Z,5.20
2019-02-19T16:23:43.911Z,6.00
2019-02-19T16:26:37.307Z,5.20
2019-02-19T16:29:34.824Z,5.33
2019-02-19T16:32:35.797Z,4.70
2019-02-19T16:38:51.648Z,4.80
2019-02-19T16:41:56.628Z,4.90
2019-02-19T16:45:06.690Z,5.30
2019-02-19T16:48:06.790Z,4.97
2019-02-19T16:50:56.566Z,5.10
2019-02-19T16:53:57.388Z,5.60
2019-02-19T16:57:08.111Z,5.67
2019-02-19T17:00:07.459Z,5.10
2019-02-19T17:03:05.762Z,4.60
2019-02-19T17:06:03.930Z,6.10
2019-02-19T17:08:45.600Z,5.50
2019-02-19T17:11:29.764Z,6.80
2019-02-19T17:14:33.253Z,7.40
2019-02-19T17:17:39.357Z,6.87
2019-02-19T17:20:39.697Z,5.90
2019-02-19T17:23:46.352Z,7.70
2019-02-19T17:26:31.670Z,7.10
2019-02-19T17:29:28.228Z,6.10
2019-02-19T17:32:17.177Z,6.23
2019-02-19T17:35:01.846Z,6.20
2019-02-19T17:38:00.874Z,5.40
2019-02-19T17:41:03.442Z,6.60
2019-02-19T17:43:49.100Z,6.67
2019-02-19T17:46:35.505Z,7.60
2019-02-19T17:49:27.757Z,8.50
2019-02-19T17:52:08.448Z,8.97
2019-02-19T17:54:47.228Z,6.90
2019-02-19T17:57:36.654Z,7.73
2019-02-19T18:00:30.167Z,6.60
2019-02-19T18:03:24.553Z,6.77
2019-02-19T18:06:22.922Z,7.30
2019-02-19T18:09:15.770Z,10.13
2019-02-19T18:12:19.069Z,9.83
2019-02-19T18:15:05.187Z,8.80
2019-02-19T18:17:57.977Z,11.63
2019-02-19T18:20:32.967Z,8.70
2019-02-19T18:23:06.666Z,9.33
2019-02-19T18:25:40.009Z,8.87
2019-02-19T18:28:12.857Z,10.20
2019-02-19T18:30:46.355Z,9.60
2019-02-19T18:33:23.205Z,7.80
2019-02-19T18:36:00.016Z,7.70
2019-02-19T18:38:41.350Z,7.53
2019-02-19T18:41:19.467Z,8.07
2019-02-19T18:43:53.998Z,8.07
2019-02-19T18:46:28.962Z,7.10
2019-02-19T18:49:00.395Z,7.27
2019-02-19T18:51:31.829Z,7.50
2019-02-19T18:54:03.301Z,8.50
2019-02-19T18:56:34.818Z,8.27
2019-02-19T18:59:07.540Z,8.07
2019-02-19T19:01:40.608Z,7.77
2019-02-19T19:04:12.079Z,8.67
2019-02-19T19:06:43.507Z,8.77
2019-02-19T19:09:14.959Z,9.03
2019-02-19T19:11:46.382Z,8.93
2019-02-19T19:14:17.831Z,8.80
2019-02-19T19:16:49.259Z,8.90
2019-02-19T19:19:20.732Z,10.00
2019-02-19T19:21:52.242Z,9.37
2019-02-19T19:24:23.712Z,9.90
2019-02-19T19:26:55.146Z,9.50
2019-02-19T19:29:26.581Z,9.20
2019-02-19T19:31:58.019Z,9.70
2019-02-19T19:34:29.491Z,13.17
2019-02-19T19:37:00.919Z,14.13
2019-02-19T19:39:34.864Z,13.53
2019-02-19T19:42:06.328Z,12.27
2019-02-19T19:44:37.794Z,12.20
2019-02-19T19:47:09.257Z,11.13
2019-02-19T19:49:40.721Z,11.27
2019-02-19T19:52:12.155Z,11.73
2019-02-19T19:54:43.631Z,11.33
2019-02-19T19:57:15.075Z,11.80
2019-02-19T19:59:46.651Z,13.00
2019-02-19T20:02:20.909Z,11.97
2019-02-19T20:05:02.977Z,11.70
2019-02-19T20:07:36.584Z,14.03
2019-02-19T20:10:10.068Z,13.37
2019-02-19T20:12:41.544Z,12.97
2019-02-19T20:15:13.581Z,14.03
2019-02-19T20:17:45.140Z,13.10
2019-02-19T20:20:16.607Z,13.50
2019-02-19T20:22:48.028Z,14.40
2019-02-19T20:25:19.498Z,14.80
2019-02-19T20:27:51.004Z,14.80
2019-02-19T20:30:22.485Z,15.67
2019-02-19T20:32:54.017Z,15.67
2019-02-19T20:35:25.548Z,16.50
2019-02-19T20:37:57.035Z,15.80
2019-02-19T20:40:28.465Z,15.63
2019-02-19T20:42:59.957Z,17.70
2019-02-19T20:45:33.287Z,19.10
2019-02-19T20:48:04.758Z,17.63
2019-02-19T20:50:36.307Z,17.30
2019-02-19T20:53:07.783Z,17.20
2019-02-19T20:55:39.740Z,18.67
2019-02-19T20:58:11.336Z,18.30
2019-02-19T21:00:46.783Z,20.90
2019-02-19T21:03:19.929Z,19.60
2019-02-19T21:05:54.529Z,17.40
2019-02-19T21:08:30.377Z,16.70
2019-02-19T21:11:01.894Z,18.47
2019-02-19T21:13:33.411Z,18.87
2019-02-19T21:16:04.926Z,22.13
2019-02-19T21:18:36.522Z,22.23
2019-02-19T21:21:08.047Z,20.23
2019-02-19T21:23:41.509Z,21.40
2019-02-19T21:26:18.173Z,22.50
2019-02-19T21:28:55.831Z,20.40
2019-02-19T21:31:26.670Z,21.40
2019-02-19T21:34:01.016Z,21.47
2019-02-19T21:36:37.425Z,21.40
2019-02-19T21:39:12.827Z,20.43
2019-02-19T21:41:51.826Z,21.47
2019-02-19T21:44:25.501Z,20.10
2019-02-19T21:47:00.881Z,19.97
2019-02-19T21:49:35.561Z,19.47
2019-02-19T21:52:07.485Z,20.40
2019-02-19T21:54:39.003Z,20.77
2019-02-19T21:57:10.422Z,19.93
2019-02-19T21:59:41.881Z,19.13
2019-02-19T22:02:16.434Z,18.97
2019-02-19T22:04:47.579Z,21.27
2019-02-19T22:07:19.053Z,21.70
2019-02-19T22:09:55.535Z,20.43
2019-02-19T22:12:26.067Z,21.93
2019-02-19T22:14:57.489Z,22.33
2019-02-19T22:17:29.977Z,21.40
2019-02-19T22:20:03.732Z,22.00
2019-02-19T22:22:36.755Z,21.23
2019-02-19T22:25:08.267Z,23.37
2019-02-19T22:27:39.686Z,22.10
2019-02-19T22:30:11.649Z,21.97
2019-02-19T22:32:43.045Z,21.73
2019-02-19T22:35:14.477Z,21.77
2019-02-19T22:37:45.901Z,22.00
2019-02-19T22:40:17.338Z,23.40
2019-02-19T22:42:48.819Z,21.97
2019-02-19T22:45:24.454Z,22.27
2019-02-19T22:47:55.881Z,21.30
2019-02-19T22:50:27.306Z,22.53
2019-02-19T22:52:58.709Z,23.20
2019-02-19T22:55:54.925Z,22.30
2019-02-19T22:58:26.255Z,22.07
2019-02-19T23:01:23.183Z,20.37
2019-02-19T23:03:57.765Z,22.53
2019-02-19T23:06:29.211Z,22.50
2019-02-19T23:09:00.579Z,22.57
2019-02-19T23:11:33.635Z,21.73
2019-02-19T23:14:04.995Z,20.67
2019-02-19T23:16:36.609Z,23.80
2019-02-19T23:19:08.078Z,21.80
2019-02-19T23:21:39.500Z,22.03
2019-02-19T23:24:10.989Z,22.60
2019-02-19T23:26:42.341Z,21.80
2019-02-19T23:29:13.808Z,21.53
2019-02-19T23:31:45.310Z,20.73
2019-02-19T23:34:16.659Z,22.73
2019-02-19T23:36:54.105Z,22.27
2019-02-19T23:39:25.427Z,22.10
2019-02-19T23:41:58.620Z,23.23
2019-02-19T23:44:29.966Z,21.93
2019-02-19T23:47:03.875Z,23.00
2019-02-19T23:49:38.387Z,21.10
2019-02-19T23:52:09.835Z,21.60
2019-02-19T23:54:41.251Z,22.33
2019-02-19T23:57:12.629Z,19.40
2019-02-19T23:59:43.964Z,20.87
